createdAt,value
2022-09-11T00:03:39.463Z,2.10
2022-09-11T00:07:42.680Z,2.37
2022-09-11T00:11:45.973Z,1.83
2022-09-11T00:15:51.376Z,2.20
2022-09-11T00:19:56.053Z,2.30
2022-09-11T00:23:59.649Z,2.13
2022-09-11T00:28:03.985Z,1.97
2022-09-11T00:32:07.265Z,2.00
2022-09-11T00:36:15.181Z,1.80
2022-09-11T00:40:19.634Z,2.57
2022-09-11T00:45:04.210Z,2.30
2022-09-11T00:49:18.858Z,2.40
2022-09-11T00:53:26.526Z,2.10
2022-09-11T00:57:33.380Z,1.80
2022-09-11T01:01:37.325Z,2.10
2022-09-11T01:05:43.515Z,1.80
2022-09-11T01:09:48.897Z,1.87
2022-09-11T01:14:02.208Z,2.40
2022-09-11T01:18:15.104Z,2.43
2022-09-11T01:22:39.994Z,2.60
2022-09-11T01:27:04.000Z,2.07
2022-09-11T01:31:12.809Z,1.97
2022-09-11T01:35:22.615Z,1.87
2022-09-11T01:39:32.999Z,2.30
2022-09-11T01:43:41.425Z,2.13
2022-09-11T01:47:49.509Z,2.30
2022-09-11T01:51:57.812Z,2.20
2022-09-11T01:56:05.360Z,2.10
2022-09-11T02:00:11.664Z,1.83
2022-09-11T02:04:22.102Z,2.50
2022-09-11T02:08:30.252Z,2.13
2022-09-11T02:12:42.778Z,2.30
2022-09-11T02:16:50.692Z,2.43
2022-09-11T02:20:55.620Z,1.93
2022-09-11T02:24:58.894Z,2.13
2022-09-11T02:29:02.814Z,2.50
2022-09-11T02:33:06.359Z,1.70
2022-09-11T02:37:23.409Z,2.03
2022-09-11T02:41:32.512Z,2.10
2022-09-11T02:45:45.698Z,2.10
2022-09-11T02:50:01.347Z,1.80
2022-09-11T02:54:16.126Z,1.87
2022-09-11T02:58:23.434Z,1.97
2022-09-11T03:02:29.102Z,2.30
2022-09-11T03:06:32.322Z,2.70
2022-09-11T03:10:38.650Z,4.17
2022-09-11T03:14:41.791Z,4.93
2022-09-11T03:18:45.039Z,4.60
2022-09-11T03:22:48.190Z,3.73
2022-09-11T03:26:52.898Z,3.00
2022-09-11T03:30:57.738Z,5.00
2022-09-11T03:35:01.800Z,3.27
2022-09-11T03:39:05.504Z,4.07
2022-09-11T03:43:12.465Z,2.40
2022-09-11T03:47:15.588Z,2.50
2022-09-11T03:51:18.874Z,3.10
2022-09-11T03:55:23.197Z,2.10
2022-09-11T03:59:31.097Z,2.47
2022-09-11T04:03:34.685Z,2.10
2022-09-11T04:07:38.648Z,2.37
2022-09-11T04:11:41.846Z,2.50
2022-09-11T04:15:46.418Z,2.33
2022-09-11T04:19:49.578Z,2.20
2022-09-11T04:23:55.744Z,1.83
2022-09-11T04:27:58.948Z,2.00
2022-09-11T04:32:04.089Z,2.43
2022-09-11T04:36:08.254Z,2.93
2022-09-11T04:40:12.020Z,1.80
2022-09-11T04:44:15.583Z,2.90
2022-09-11T04:48:20.658Z,2.60
2022-09-11T04:52:23.786Z,2.63
2022-09-11T04:56:29.163Z,2.87
2022-09-11T05:00:32.311Z,2.10
2022-09-11T05:04:37.451Z,2.17
2022-09-11T05:08:40.837Z,2.47
2022-09-11T05:12:44.146Z,2.50
2022-09-11T05:16:47.486Z,2.40
2022-09-11T05:21:00.635Z,2.53
2022-09-11T05:25:04.662Z,3.40
2022-09-11T05:29:09.452Z,2.23
2022-09-11T05:33:14.254Z,2.30
2022-09-11T05:37:18.894Z,3.80
2022-09-11T05:41:22.541Z,2.33
2022-09-11T05:45:25.829Z,2.10
2022-09-11T05:49:29.006Z,1.97
2022-09-11T05:53:33.805Z,2.37
2022-09-11T05:57:36.924Z,2.47
2022-09-11T06:01:40.204Z,2.53
2022-09-11T06:05:43.847Z,2.40
2022-09-11T06:09:48.350Z,2.50
2022-09-11T06:13:51.963Z,2.77
2022-09-11T06:17:55.181Z,2.50
2022-09-11T06:22:00.320Z,2.00
2022-09-11T06:26:07.222Z,2.67
2022-09-11T06:30:11.817Z,2.30
2022-09-11T06:34:15.263Z,2.40
2022-09-11T06:38:18.584Z,1.90
2022-09-11T06:42:23.589Z,2.00
2022-09-11T06:46:27.093Z,2.00
2022-09-11T06:50:32.934Z,1.60
2022-09-11T06:54:39.888Z,1.80
2022-09-11T06:58:45.329Z,1.73
2022-09-11T07:02:48.745Z,2.07
2022-09-11T07:06:51.881Z,1.50
2022-09-11T07:10:55.878Z,1.63
2022-09-11T07:15:00.447Z,1.27
2022-09-11T07:19:04.956Z,1.27
2022-09-11T07:23:08.312Z,1.50
2022-09-11T07:27:13.962Z,1.30
2022-09-11T07:31:21.229Z,1.50
2022-09-11T07:35:24.687Z,1.40
2022-09-11T07:39:28.159Z,2.30
2022-09-11T07:43:31.357Z,1.20
2022-09-11T07:47:36.089Z,1.73
2022-09-11T07:51:39.894Z,1.37
2022-09-11T07:55:43.714Z,1.47
2022-09-11T07:59:47.180Z,1.77
2022-09-11T08:03:57.108Z,1.40
2022-09-11T08:08:00.367Z,1.50
2022-09-11T08:12:04.130Z,2.47
2022-09-11T08:16:08.265Z,1.87
2022-09-11T08:20:15.915Z,2.23
2022-09-11T08:24:20.249Z,1.97
2022-09-11T08:28:23.663Z,1.43
2022-09-11T08:32:27.115Z,2.10
2022-09-11T08:36:31.766Z,1.93
2022-09-11T08:40:39.019Z,1.57
2022-09-11T08:44:48.080Z,1.23
2022-09-11T08:48:58.166Z,1.00
2022-09-11T08:53:07.715Z,1.30
2022-09-11T08:57:25.291Z,1.27
2022-09-11T09:01:37.300Z,1.20
2022-09-11T09:05:47.228Z,1.27
2022-09-11T09:10:03.582Z,2.20
2022-09-11T09:14:29.689Z,0.90
2022-09-11T09:18:35.877Z,0.97
2022-09-11T09:22:44.924Z,1.00
2022-09-11T09:26:52.818Z,0.90
2022-09-11T09:30:58.447Z,1.00
2022-09-11T09:35:06.514Z,0.80
2022-09-11T09:39:14.148Z,0.90
2022-09-11T09:43:31.157Z,0.83
2022-09-11T09:47:34.706Z,0.73
2022-09-11T09:51:39.813Z,0.90
2022-09-11T09:55:45.107Z,0.70
2022-09-11T09:59:56.427Z,0.97
2022-09-11T10:04:12.713Z,1.00
2022-09-11T10:08:29.363Z,1.10
2022-09-11T10:12:32.577Z,0.90
2022-09-11T10:16:39.445Z,1.07
2022-09-11T10:20:42.676Z,0.90
2022-09-11T10:24:46.106Z,0.70
2022-09-11T10:28:49.873Z,0.90
2022-09-11T10:32:55.279Z,0.80
2022-09-11T10:37:02.913Z,0.83
2022-09-11T10:41:18.996Z,0.83
2022-09-11T10:45:25.129Z,0.83
2022-09-11T10:49:29.801Z,0.80
2022-09-11T10:53:39.885Z,0.77
2022-09-11T10:57:47.078Z,0.70
2022-09-11T11:01:51.380Z,0.90
2022-09-11T11:06:08.546Z,0.70
2022-09-11T11:10:26.064Z,0.70
2022-09-11T11:14:59.220Z,0.83
2022-09-11T11:19:23.891Z,0.60
2022-09-11T11:23:46.787Z,0.50
2022-09-11T11:28:24.262Z,0.50
2022-09-11T11:32:50.133Z,0.70
2022-09-11T11:37:01.619Z,0.60
2022-09-11T11:41:11.316Z,0.60
2022-09-11T11:45:23.648Z,0.50
2022-09-11T11:49:36.405Z,0.60
2022-09-11T11:53:45.441Z,0.40
2022-09-11T11:57:58.854Z,0.57
2022-09-11T12:02:05.430Z,1.43
2022-09-11T12:06:09.107Z,0.50
2022-09-11T12:10:22.859Z,0.50
2022-09-11T12:14:30.624Z,0.50
2022-09-11T12:18:34.391Z,0.50
2022-09-11T12:22:39.419Z,0.50
2022-09-11T12:26:42.679Z,0.30
2022-09-11T12:31:02.239Z,0.50
2022-09-11T12:35:20.113Z,0.40
2022-09-11T12:39:31.224Z,0.30
2022-09-11T12:43:49.491Z,0.40
2022-09-11T12:47:54.312Z,0.30
2022-09-11T12:52:01.750Z,0.30
2022-09-11T12:56:08.606Z,0.37
2022-09-11T13:00:24.332Z,0.53
2022-09-11T13:04:32.242Z,0.60
2022-09-11T13:08:46.316Z,0.43
2022-09-11T13:12:56.017Z,0.30
2022-09-11T13:17:00.534Z,0.87
2022-09-11T13:21:15.317Z,0.40
2022-09-11T13:25:20.081Z,0.30
2022-09-11T13:29:24.856Z,0.30
2022-09-11T13:33:30.217Z,0.40
2022-09-11T13:37:39.199Z,0.50
2022-09-11T13:41:44.846Z,0.40
2022-09-11T13:45:48.586Z,0.40
2022-09-11T13:49:55.217Z,0.40
2022-09-11T13:54:05.943Z,0.40
2022-09-11T13:58:24.449Z,0.50
2022-09-11T14:02:47.716Z,0.40
2022-09-11T14:06:51.051Z,0.33
2022-09-11T14:10:57.843Z,0.40
2022-09-11T14:15:09.877Z,0.40
2022-09-11T14:19:17.182Z,0.40
2022-09-11T14:23:25.239Z,0.40
2022-09-11T14:27:44.819Z,0.40
2022-09-11T14:31:48.206Z,0.40
2022-09-11T14:35:53.531Z,0.30
2022-09-11T14:39:59.392Z,0.30
2022-09-11T14:44:04.242Z,0.30
2022-09-11T14:48:14.561Z,0.40
2022-09-11T14:52:21.162Z,0.30
2022-09-11T14:56:25.150Z,0.30
2022-09-11T15:00:31.880Z,0.30
2022-09-11T15:04:35.448Z,0.30
2022-09-11T15:08:39.479Z,0.40
2022-09-11T15:12:43.065Z,0.30
2022-09-11T15:16:47.922Z,0.30
2022-09-11T15:20:51.519Z,0.30
2022-09-11T15:24:56.715Z,0.33
2022-09-11T15:29:00.701Z,0.30
2022-09-11T15:33:05.750Z,0.30
2022-09-11T15:37:09.002Z,0.43
2022-09-11T15:41:12.241Z,0.30
2022-09-11T15:45:15.558Z,0.50
2022-09-11T15:49:21.717Z,0.40
2022-09-11T15:53:25.564Z,0.30
2022-09-11T15:57:30.038Z,0.40
2022-09-11T16:01:37.586Z,0.50
2022-09-11T16:05:43.691Z,0.30
2022-09-11T16:09:46.962Z,0.30
2022-09-11T16:13:51.423Z,0.40
2022-09-11T16:17:54.791Z,0.30
2022-09-11T16:22:01.350Z,0.30
2022-09-11T16:26:06.380Z,0.30
2022-09-11T16:30:42.846Z,0.47
2022-09-11T16:34:34.681Z,0.30
2022-09-11T16:38:41.440Z,0.50
2022-09-11T16:42:44.673Z,0.30
2022-09-11T16:46:48.825Z,0.30
2022-09-11T16:50:54.179Z,0.30
2022-09-11T16:55:00.048Z,0.40
2022-09-11T16:59:04.106Z,0.40
2022-09-11T17:03:07.475Z,0.40
2022-09-11T17:07:11.040Z,0.37
2022-09-11T17:11:29.162Z,0.50
2022-09-11T17:15:35.295Z,0.37
2022-09-11T17:19:39.495Z,0.50
2022-09-11T17:23:44.491Z,0.40
2022-09-11T17:27:49.991Z,0.60
2022-09-11T17:32:16.812Z,0.50
2022-09-11T17:36:21.462Z,0.70
2022-09-11T17:40:25.225Z,1.30
2022-09-11T17:44:29.891Z,0.77
2022-09-11T17:48:36.079Z,1.00
2022-09-11T17:52:39.699Z,1.17
2022-09-11T17:56:43.537Z,1.03
2022-09-11T18:00:51.690Z,1.07
2022-09-11T18:04:57.788Z,1.00
2022-09-11T18:09:13.882Z,1.03
2022-09-11T18:13:17.460Z,0.67
2022-09-11T18:17:24.068Z,0.93
2022-09-11T18:21:27.608Z,0.80
2022-09-11T18:25:39.701Z,1.10
2022-09-11T18:29:43.522Z,0.80
2022-09-11T18:33:55.472Z,0.70
2022-09-11T18:38:00.551Z,0.50
2022-09-11T18:42:08.577Z,0.90
2022-09-11T18:46:15.384Z,0.80
2022-09-11T18:50:22.857Z,0.70
2022-09-11T18:54:27.952Z,0.60
2022-09-11T18:58:32.337Z,0.70
2022-09-11T19:02:36.648Z,0.80
2022-09-11T19:06:41.877Z,0.63
2022-09-11T19:10:45.431Z,0.80
2022-09-11T19:14:50.027Z,0.87
2022-09-11T19:18:55.357Z,1.27
2022-09-11T19:23:02.963Z,0.97
2022-09-11T19:27:07.053Z,1.40
2022-09-11T19:31:14.552Z,1.10
2022-09-11T19:35:21.041Z,1.10
2022-09-11T19:39:27.676Z,1.00
2022-09-11T19:43:35.154Z,1.20
2022-09-11T19:47:38.749Z,1.30
2022-09-11T19:51:44.309Z,1.47
2022-09-11T19:55:53.573Z,1.37
2022-09-11T20:00:00.332Z,1.10
2022-09-11T20:04:05.131Z,0.80
2022-09-11T20:08:12.879Z,1.00
2022-09-11T20:12:21.288Z,1.10
2022-09-11T20:16:26.277Z,1.30
2022-09-11T20:20:29.525Z,1.13
2022-09-11T20:24:33.525Z,1.20
2022-09-11T20:28:38.184Z,1.00
2022-09-11T20:32:41.565Z,1.13
2022-09-11T20:36:44.874Z,1.10
2022-09-11T20:40:47.993Z,1.00
2022-09-11T20:44:53.216Z,1.13
2022-09-11T20:48:56.990Z,1.10
2022-09-11T20:53:00.605Z,1.03
2022-09-11T20:57:04.321Z,1.20
2022-09-11T21:01:12.266Z,1.23
2022-09-11T21:05:15.509Z,1.27
2022-09-11T21:09:19.205Z,0.83
2022-09-11T21:13:22.372Z,1.40
2022-09-11T21:17:27.022Z,1.40
2022-09-11T21:21:31.199Z,1.57
2022-09-11T21:25:38.850Z,1.70
2022-09-11T21:29:42.345Z,1.53
2022-09-11T21:33:46.985Z,1.60
2022-09-11T21:37:50.128Z,1.93
2022-09-11T21:41:53.410Z,1.80
2022-09-11T21:45:56.546Z,1.90
2022-09-11T21:50:01.172Z,1.80
2022-09-11T21:54:04.452Z,1.73
2022-09-11T21:58:08.584Z,1.60
2022-09-11T22:02:11.963Z,1.40
2022-09-11T22:06:17.564Z,2.40
2022-09-11T22:10:21.386Z,1.43
2022-09-11T22:14:25.211Z,1.73
2022-09-11T22:18:28.389Z,1.80
2022-09-11T22:22:36.584Z,1.30
2022-09-11T22:26:39.747Z,1.37
2022-09-11T22:30:43.368Z,1.27
2022-09-11T22:34:46.676Z,1.40
2022-09-11T22:38:51.278Z,1.43
2022-09-11T22:42:54.698Z,1.23
2022-09-11T22:46:57.981Z,1.77
2022-09-11T22:51:01.321Z,1.30
2022-09-11T22:55:06.730Z,1.57
2022-09-11T22:59:10.345Z,1.60
2022-09-11T23:03:14.323Z,1.73
2022-09-11T23:07:17.005Z,1.57
2022-09-11T23:11:22.212Z,1.17
2022-09-11T23:15:25.362Z,1.50
2022-09-11T23:19:29.571Z,1.27
2022-09-11T23:23:32.717Z,1.53
2022-09-11T23:27:37.359Z,1.53
2022-09-11T23:31:40.883Z,1.50
2022-09-11T23:35:44.113Z,1.50
2022-09-11T23:39:48.173Z,1.30
2022-09-11T23:43:53.081Z,1.77
2022-09-11T23:47:56.372Z,2.23
2022-09-11T23:51:59.591Z,1.60
2022-09-11T23:56:03.181Z,1.87
